createdAt,value
2023-05-01T00:01:34.139Z,66.30
2023-05-01T00:04:03.917Z,99.90
2023-05-01T00:06:34.586Z,99.90
2023-05-01T00:09:07.769Z,1.00
2023-05-01T00:11:39.223Z,1.00
2023-05-01T00:14:08.796Z,1.00
2023-05-01T00:16:38.457Z,1.00
2023-05-01T00:19:08.771Z,99.90
2023-05-01T00:21:38.689Z,99.90
2023-05-01T00:24:08.699Z,99.90
2023-05-01T00:26:39.942Z,99.90
2023-05-01T00:29:09.546Z,1.00
2023-05-01T00:31:39.410Z,1.00
2023-05-01T00:34:08.848Z,1.00
2023-05-01T00:36:38.359Z,86.40
2023-05-01T00:39:08.280Z,1.00
2023-05-01T00:41:39.741Z,1.00
2023-05-01T00:44:09.236Z,82.20
2023-05-01T00:46:38.740Z,1.00
2023-05-01T00:49:08.454Z,1.00
2023-05-01T00:51:38.782Z,1.00
2023-05-01T00:54:08.481Z,99.90
2023-05-01T00:56:39.824Z,2.30
2023-05-01T00:59:09.443Z,99.90
2023-05-01T01:01:39.343Z,1.00
2023-05-01T01:04:09.124Z,1.00
2023-05-01T01:06:49.710Z,1.00
2023-05-01T01:09:30.704Z,83.10
2023-05-01T01:12:12.485Z,58.10
2023-05-01T01:14:50.509Z,77.50
2023-05-01T01:17:26.470Z,1.00
2023-05-01T01:20:16.531Z,82.90
2023-05-01T01:22:52.082Z,99.90
2023-05-01T01:25:49.406Z,99.90
2023-05-01T01:28:52.664Z,99.90
2023-05-01T01:31:31.977Z,99.90
2023-05-01T01:34:06.487Z,99.90
2023-05-01T01:36:42.756Z,99.90
2023-05-01T01:39:21.459Z,99.90
2023-05-01T01:41:53.851Z,99.90
2023-05-01T01:44:30.515Z,1.00
2023-05-01T01:47:03.184Z,1.00
2023-05-01T01:49:37.726Z,1.00
2023-05-01T01:52:09.674Z,99.90
2023-05-01T01:54:44.204Z,99.90
2023-05-01T01:57:17.622Z,99.90
2023-05-01T01:59:48.546Z,1.00
2023-05-01T02:02:22.276Z,1.00
2023-05-01T02:04:57.675Z,1.00
2023-05-01T02:07:28.838Z,99.90
2023-05-01T02:09:59.363Z,1.00
2023-05-01T02:12:29.999Z,1.00
2023-05-01T02:15:02.173Z,1.00
2023-05-01T02:17:32.317Z,1.00
2023-05-01T02:20:06.086Z,1.00
2023-05-01T02:22:36.407Z,1.00
2023-05-01T02:25:09.394Z,1.00
2023-05-01T02:27:44.938Z,1.00
2023-05-01T02:30:15.469Z,1.00
2023-05-01T02:32:45.103Z,1.00
2023-05-01T02:35:17.560Z,1.00
2023-05-01T02:37:47.876Z,1.00
2023-05-01T02:40:17.786Z,1.00
2023-05-01T02:42:50.158Z,1.00
2023-05-01T02:45:22.120Z,1.00
2023-05-01T02:47:54.889Z,1.00
2023-05-01T02:50:26.846Z,1.00
2023-05-01T02:52:56.986Z,1.00
2023-05-01T02:55:26.999Z,1.00
2023-05-01T02:58:00.906Z,1.00
2023-05-01T03:00:30.686Z,1.00
2023-05-01T03:03:00.183Z,1.00
2023-05-01T03:05:31.381Z,1.00
2023-05-01T03:08:01.159Z,1.00
2023-05-01T03:10:30.774Z,1.00
2023-05-01T03:13:01.011Z,1.00
2023-05-01T03:15:30.414Z,1.00
2023-05-01T03:18:00.282Z,1.00
2023-05-01T03:20:32.098Z,1.00
2023-05-01T03:23:01.791Z,1.00
2023-05-01T03:25:31.496Z,1.00
2023-05-01T03:28:01.205Z,1.00
2023-05-01T03:30:30.812Z,1.00
2023-05-01T03:33:00.566Z,1.00
2023-05-01T03:35:31.936Z,1.00
2023-05-01T03:38:01.570Z,1.00
2023-05-01T03:40:31.095Z,1.00
2023-05-01T03:43:00.681Z,1.00
2023-05-01T03:45:30.192Z,1.00
2023-05-01T03:47:59.765Z,1.00
2023-05-01T03:50:31.045Z,1.00
2023-05-01T03:53:00.661Z,1.00
2023-05-01T03:55:30.252Z,1.00
2023-05-01T03:57:59.666Z,1.00
2023-05-01T04:00:29.476Z,1.00
2023-05-01T04:02:59.241Z,1.00
2023-05-01T04:05:30.428Z,1.00
2023-05-01T04:07:59.912Z,1.00
2023-05-01T04:10:29.292Z,1.00
2023-05-01T04:12:58.935Z,1.00
2023-05-01T04:15:28.552Z,1.00
2023-05-01T04:17:58.325Z,1.00
2023-05-01T04:20:27.987Z,1.00
2023-05-01T04:22:59.209Z,1.00
2023-05-01T04:25:28.714Z,1.00
2023-05-01T04:27:58.329Z,1.00
2023-05-01T04:30:27.925Z,1.00
2023-05-01T04:32:58.067Z,1.00
2023-05-01T04:35:27.969Z,1.00
2023-05-01T04:37:59.111Z,1.00
2023-05-01T04:40:28.637Z,1.00
2023-05-01T04:42:58.217Z,1.00
2023-05-01T04:45:27.920Z,1.00
2023-05-01T04:47:57.348Z,1.00
2023-05-01T04:50:27.439Z,1.00
2023-05-01T04:52:59.715Z,99.90
2023-05-01T04:55:30.976Z,99.90
2023-05-01T04:58:03.339Z,1.00
2023-05-01T05:00:32.726Z,1.00
2023-05-01T05:03:02.362Z,40.30
2023-05-01T05:05:31.970Z,99.90
2023-05-01T05:08:03.608Z,1.00
2023-05-01T05:10:33.088Z,99.90
2023-05-01T05:13:02.592Z,1.00
2023-05-01T05:15:31.914Z,1.00
2023-05-01T05:18:01.542Z,1.00
2023-05-01T05:20:31.441Z,99.90
2023-05-01T05:23:02.582Z,99.90
2023-05-01T05:25:32.184Z,99.90
2023-05-01T05:28:01.917Z,99.90
2023-05-01T05:30:31.709Z,12.70
2023-05-01T05:33:01.604Z,1.00
2023-05-01T05:35:31.460Z,99.90
2023-05-01T05:38:02.468Z,39.30
2023-05-01T05:40:31.955Z,1.00
2023-05-01T05:43:01.368Z,1.00
2023-05-01T05:45:31.287Z,1.00
2023-05-01T05:48:00.941Z,1.00
2023-05-01T05:50:30.507Z,99.90
2023-05-01T05:53:00.105Z,99.90
2023-05-01T05:55:31.163Z,99.90
2023-05-01T05:58:01.378Z,99.90
2023-05-01T06:00:30.866Z,99.90
2023-05-01T06:03:00.772Z,99.90
2023-05-01T06:05:30.436Z,99.90
2023-05-01T06:07:59.897Z,99.90
2023-05-01T06:10:31.053Z,99.90
2023-05-01T06:13:06.286Z,99.90
2023-05-01T06:15:41.592Z,55.40
2023-05-01T06:18:12.406Z,1.00
2023-05-01T06:20:42.266Z,1.00
2023-05-01T06:23:14.134Z,1.00
2023-05-01T06:25:45.275Z,1.00
2023-05-01T06:28:14.890Z,1.00
2023-05-01T06:30:44.505Z,1.00
2023-05-01T06:33:13.866Z,1.00
2023-05-01T06:35:43.805Z,1.00
2023-05-01T06:38:13.200Z,1.00
2023-05-01T06:40:47.601Z,1.00
2023-05-01T06:43:17.546Z,1.00
2023-05-01T06:45:47.355Z,1.00
2023-05-01T06:48:16.859Z,1.00
2023-05-01T06:50:46.472Z,1.00
2023-05-01T06:53:16.577Z,1.00
2023-05-01T06:55:47.715Z,1.00
2023-05-01T07:00:52.461Z,1.00
2023-05-01T07:03:22.227Z,1.00
2023-05-01T07:05:51.808Z,1.00
2023-05-01T07:08:21.985Z,1.00
2023-05-01T07:10:54.379Z,1.00
2023-05-01T07:13:23.897Z,1.00
2023-05-01T07:15:54.680Z,1.00
2023-05-01T07:18:24.106Z,1.00
2023-05-01T07:20:53.942Z,1.00
2023-05-01T07:23:24.246Z,1.00
2023-05-01T07:25:55.594Z,1.00
2023-05-01T07:28:25.212Z,1.00
2023-05-01T07:30:55.028Z,1.00
2023-05-01T07:33:25.071Z,1.00
2023-05-01T07:35:54.854Z,1.00
2023-05-01T07:38:24.351Z,1.00
2023-05-01T07:40:57.535Z,1.00
2023-05-01T07:43:27.152Z,1.00
2023-05-01T07:46:00.968Z,1.00
2023-05-01T07:48:30.958Z,1.00
2023-05-01T07:51:04.681Z,1.00
2023-05-01T07:53:34.391Z,1.00
2023-05-01T07:56:12.384Z,1.00
2023-05-01T07:58:43.336Z,1.00
2023-05-01T08:01:13.353Z,1.00
2023-05-01T08:03:43.112Z,1.00
2023-05-01T08:06:12.918Z,1.00
2023-05-01T08:08:42.685Z,1.00
2023-05-01T08:11:14.847Z,1.00
2023-05-01T08:13:44.359Z,1.00
2023-05-01T08:16:14.210Z,1.00
2023-05-01T08:18:45.717Z,1.00
2023-05-01T08:21:15.230Z,1.00
2023-05-01T08:23:44.796Z,1.00
2023-05-01T08:26:17.003Z,1.00
2023-05-01T08:28:47.023Z,1.00
2023-05-01T08:31:16.970Z,1.00
2023-05-01T08:33:46.648Z,1.00
2023-05-01T08:36:16.139Z,1.00
2023-05-01T08:38:46.401Z,1.00
2023-05-01T08:41:24.280Z,1.00
2023-05-01T08:43:54.079Z,1.00
2023-05-01T08:46:31.422Z,1.00
2023-05-01T08:49:03.949Z,1.00
2023-05-01T08:51:34.898Z,1.00
2023-05-01T08:54:05.720Z,1.00
2023-05-01T08:56:38.724Z,1.00
2023-05-01T08:59:11.371Z,1.00
2023-05-01T09:01:41.586Z,1.00
2023-05-01T09:04:13.709Z,1.00
2023-05-01T09:06:45.596Z,1.00
2023-05-01T09:09:15.345Z,1.00
2023-05-01T09:11:47.910Z,1.00
2023-05-01T09:14:17.724Z,1.00
2023-05-01T09:16:47.334Z,1.00
2023-05-01T09:19:17.133Z,1.00
2023-05-01T09:21:46.950Z,1.00
2023-05-01T09:24:16.987Z,1.00
2023-05-01T09:26:48.264Z,1.00
2023-05-01T09:29:40.551Z,1.00
2023-05-01T09:32:17.979Z,1.00
2023-05-01T09:34:47.868Z,1.00
2023-05-01T09:37:29.342Z,1.00
2023-05-01T09:40:10.789Z,1.00
2023-05-01T09:42:43.413Z,1.00
2023-05-01T09:45:16.423Z,1.00
2023-05-01T09:47:46.708Z,1.00
2023-05-01T09:50:32.217Z,1.00
2023-05-01T09:53:05.120Z,1.00
2023-05-01T09:55:35.379Z,1.00
2023-05-01T09:58:07.055Z,1.00
2023-05-01T10:00:51.419Z,1.00
2023-05-01T10:03:21.482Z,1.00
2023-05-01T10:05:51.358Z,1.00
2023-05-01T10:08:20.969Z,1.00
2023-05-01T10:11:05.106Z,1.00
2023-05-01T10:13:37.093Z,1.00
2023-05-01T10:16:09.233Z,1.00
2023-05-01T10:18:39.250Z,1.00
2023-05-01T10:21:11.429Z,1.00
2023-05-01T10:23:41.102Z,1.00
2023-05-01T10:26:17.292Z,1.00
2023-05-01T10:28:50.584Z,1.00
2023-05-01T10:31:20.630Z,1.00
2023-05-01T10:33:51.338Z,1.00
2023-05-01T10:36:27.282Z,1.00
2023-05-01T10:38:57.005Z,1.00
2023-05-01T10:42:04.955Z,1.00
2023-05-01T10:44:36.752Z,1.00
2023-05-01T10:47:43.380Z,1.00
2023-05-01T10:50:14.086Z,1.00
2023-05-01T10:53:19.507Z,1.00
2023-05-01T10:55:50.885Z,1.00
2023-05-01T10:58:58.570Z,1.00
2023-05-01T11:01:34.031Z,1.00
2023-05-01T11:04:08.462Z,1.00
2023-05-01T11:06:39.498Z,1.00
2023-05-01T11:09:41.666Z,1.00
2023-05-01T11:12:13.078Z,1.00
2023-05-01T11:15:05.924Z,1.00
2023-05-01T11:17:51.789Z,1.00
2023-05-01T11:20:50.624Z,1.00
2023-05-01T11:23:24.047Z,1.00
2023-05-01T11:26:06.118Z,1.00
2023-05-01T11:28:36.638Z,1.00
2023-05-01T11:31:06.356Z,1.00
2023-05-01T11:33:37.620Z,1.00
2023-05-01T11:36:07.930Z,1.00
2023-05-01T11:38:37.848Z,1.00
2023-05-01T11:41:07.951Z,1.00
2023-05-01T11:43:52.955Z,1.00
2023-05-01T11:46:29.329Z,1.00
2023-05-01T11:49:01.974Z,1.00
2023-05-01T11:51:33.832Z,1.00
2023-05-01T11:54:04.250Z,1.00
2023-05-01T11:56:35.493Z,1.00
2023-05-01T11:59:14.020Z,1.00
2023-05-01T12:01:45.377Z,1.00
2023-05-01T12:04:25.602Z,1.00
2023-05-01T12:06:56.039Z,1.00
2023-05-01T12:09:28.121Z,1.00
2023-05-01T12:12:00.296Z,1.00
2023-05-01T12:14:29.943Z,1.00
2023-05-01T12:16:59.931Z,1.00
2023-05-01T12:19:31.569Z,1.00
2023-05-01T12:22:10.698Z,1.00
2023-05-01T12:24:40.503Z,1.00
2023-05-01T12:27:10.019Z,1.00
2023-05-01T12:29:42.810Z,1.00
2023-05-01T12:32:12.920Z,1.00
2023-05-01T12:34:44.673Z,1.00
2023-05-01T12:37:14.161Z,1.00
2023-05-01T12:39:46.536Z,1.00
2023-05-01T12:42:17.105Z,1.00
2023-05-01T12:44:46.799Z,1.00
2023-05-01T12:47:16.440Z,1.00
2023-05-01T12:49:47.632Z,1.00
2023-05-01T12:52:17.153Z,1.00
2023-05-01T12:54:46.911Z,1.00
2023-05-01T12:57:18.400Z,1.00
2023-05-01T12:59:50.037Z,1.00
2023-05-01T13:02:20.633Z,1.00
2023-05-01T13:04:52.016Z,1.00
2023-05-01T13:07:22.040Z,1.00
2023-05-01T13:09:55.894Z,1.00
2023-05-01T13:12:27.026Z,1.00
2023-05-01T13:14:57.645Z,1.00
2023-05-01T13:17:28.656Z,1.00
2023-05-01T13:20:01.489Z,1.00
2023-05-01T13:22:33.621Z,1.00
2023-05-01T13:25:04.924Z,1.00
2023-05-01T13:27:34.985Z,1.00
2023-05-01T13:30:04.916Z,1.00
2023-05-01T13:32:35.250Z,1.00
2023-05-01T13:35:06.771Z,1.00
2023-05-01T13:37:37.915Z,1.00
2023-05-01T13:40:08.860Z,1.00
2023-05-01T13:42:40.494Z,1.00
2023-05-01T13:45:10.728Z,1.00
2023-05-01T13:47:43.373Z,1.00
2023-05-01T13:50:18.770Z,1.00
2023-05-01T13:52:49.578Z,1.00
2023-05-01T13:55:19.809Z,1.00
2023-05-01T13:57:50.135Z,1.00
2023-05-01T14:00:20.364Z,1.00
2023-05-01T14:02:53.755Z,1.00
2023-05-01T14:05:29.173Z,1.00
2023-05-01T14:08:00.159Z,1.00
2023-05-01T14:10:30.875Z,1.00
2023-05-01T14:13:00.988Z,1.00
2023-05-01T14:15:30.584Z,1.00
2023-05-01T14:18:01.538Z,1.00
2023-05-01T14:20:32.873Z,1.00
2023-05-01T14:23:02.683Z,1.00
2023-05-01T14:25:35.770Z,1.00
2023-05-01T14:28:09.174Z,1.00
2023-05-01T14:30:40.311Z,1.00
2023-05-01T14:33:11.939Z,1.00
2023-05-01T14:35:50.689Z,1.00
2023-05-01T14:38:22.258Z,1.00
2023-05-01T14:40:52.773Z,1.00
2023-05-01T14:43:23.590Z,1.00
2023-05-01T14:45:53.158Z,1.00
2023-05-01T14:48:25.600Z,1.00
2023-05-01T14:50:58.692Z,1.00
2023-05-01T14:53:29.218Z,1.00
2023-05-01T14:55:58.609Z,1.00
2023-05-01T14:58:28.956Z,1.00
2023-05-01T15:00:58.659Z,1.00
2023-05-01T15:03:28.456Z,1.00
2023-05-01T15:05:59.939Z,1.00
2023-05-01T15:08:30.960Z,1.00
2023-05-01T15:11:00.672Z,1.00
2023-05-01T15:13:32.224Z,1.00
2023-05-01T15:16:02.057Z,1.00
2023-05-01T15:18:31.947Z,1.00
2023-05-01T15:21:03.896Z,1.00
2023-05-01T15:23:33.518Z,1.00
2023-05-01T15:26:03.641Z,1.00
2023-05-01T15:28:34.558Z,1.00
2023-05-01T15:31:04.712Z,1.00
2023-05-01T15:33:34.780Z,1.00
2023-05-01T15:36:06.616Z,1.00
2023-05-01T15:38:36.078Z,1.00
2023-05-01T15:41:06.006Z,1.00
2023-05-01T15:43:35.909Z,1.00
2023-05-01T15:46:06.477Z,1.00
2023-05-01T15:48:36.037Z,1.00
2023-05-01T15:51:07.405Z,1.00
2023-05-01T15:53:36.994Z,1.00
2023-05-01T15:56:06.496Z,1.00
2023-05-01T15:58:36.295Z,1.00
2023-05-01T16:01:05.835Z,1.00
2023-05-01T16:03:35.387Z,1.00
2023-05-01T16:06:07.807Z,1.00
2023-05-01T16:08:38.417Z,1.00
2023-05-01T16:11:09.329Z,1.00
2023-05-01T16:13:41.004Z,1.00
2023-05-01T16:16:11.920Z,1.00
2023-05-01T16:18:43.821Z,1.00
2023-05-01T16:21:19.755Z,1.00
2023-05-01T16:23:49.777Z,1.00
2023-05-01T16:26:25.202Z,1.00
2023-05-01T16:29:00.369Z,1.00
2023-05-01T16:31:34.929Z,1.00
2023-05-01T16:34:06.950Z,1.00
2023-05-01T16:36:42.984Z,1.00
2023-05-01T16:39:14.748Z,1.00
2023-05-01T16:41:47.025Z,1.00
2023-05-01T16:44:18.161Z,1.00
2023-05-01T16:46:54.303Z,1.00
2023-05-01T16:49:25.172Z,1.00
2023-05-01T16:51:59.445Z,1.00
2023-05-01T16:54:36.172Z,1.00
2023-05-01T16:57:05.774Z,1.00
2023-05-01T16:59:36.294Z,1.00
2023-05-01T17:02:07.103Z,1.00
2023-05-01T17:04:36.998Z,1.00
2023-05-01T17:07:09.418Z,1.00
2023-05-01T17:09:40.964Z,1.00
2023-05-01T17:12:10.934Z,1.00
2023-05-01T17:14:40.494Z,1.00
2023-05-01T17:17:09.977Z,1.00
2023-05-01T17:19:41.848Z,1.00
2023-05-01T17:22:13.201Z,1.00
2023-05-01T17:24:43.519Z,1.00
2023-05-01T17:27:13.426Z,1.00
2023-05-01T17:29:45.097Z,1.00
2023-05-01T17:32:20.358Z,1.00
2023-05-01T17:35:03.955Z,1.00
2023-05-01T17:37:35.436Z,1.00
2023-05-01T17:40:06.158Z,1.00
2023-05-01T17:42:36.673Z,1.00
2023-05-01T17:45:08.525Z,1.00
2023-05-01T17:47:43.633Z,1.00
2023-05-01T17:50:16.296Z,1.00
2023-05-01T17:52:48.208Z,1.00
2023-05-01T17:55:20.170Z,1.00
2023-05-01T17:57:58.427Z,1.00
2023-05-01T18:00:30.066Z,1.00
2023-05-01T18:03:01.693Z,1.00
2023-05-01T18:05:31.922Z,1.00
2023-05-01T18:08:04.402Z,1.00
2023-05-01T18:10:35.428Z,1.00
2023-05-01T18:13:06.063Z,1.00
2023-05-01T18:15:36.289Z,1.00
2023-05-01T18:18:06.443Z,1.00
2023-05-01T18:20:37.582Z,1.00
2023-05-01T18:23:09.297Z,1.00
2023-05-01T18:25:41.795Z,1.00
2023-05-01T18:28:12.089Z,1.00
2023-05-01T18:30:42.322Z,1.00
2023-05-01T18:33:14.024Z,1.00
2023-05-01T18:35:45.144Z,1.00
2023-05-01T18:38:17.896Z,1.00
2023-05-01T18:40:48.217Z,1.00
2023-05-01T18:43:18.070Z,1.00
2023-05-01T18:45:49.089Z,1.00
2023-05-01T18:48:19.045Z,1.00
2023-05-01T18:51:06.722Z,1.00
2023-05-01T18:53:39.396Z,1.00
2023-05-01T18:56:09.828Z,1.00
2023-05-01T18:58:41.479Z,1.00
2023-05-01T19:01:12.270Z,1.00
2023-05-01T19:03:43.898Z,1.00
2023-05-01T19:06:14.133Z,1.00
2023-05-01T19:08:46.352Z,1.00
2023-05-01T19:11:17.910Z,1.00
2023-05-01T19:13:48.763Z,1.00
2023-05-01T19:16:19.214Z,1.00
2023-05-01T19:18:49.723Z,1.00
2023-05-01T19:21:20.677Z,1.00
2023-05-01T19:23:53.312Z,1.00
2023-05-01T19:26:24.480Z,1.00
2023-05-01T19:28:54.888Z,1.00
2023-05-01T19:31:26.082Z,1.00
2023-05-01T19:33:59.542Z,1.00
2023-05-01T19:36:30.675Z,1.00
2023-05-01T19:39:03.160Z,1.00
2023-05-01T19:41:34.499Z,1.00
2023-05-01T19:44:06.202Z,1.00
2023-05-01T19:46:37.903Z,1.00
2023-05-01T19:49:08.952Z,1.00
2023-05-01T19:51:40.330Z,1.00
2023-05-01T19:54:12.487Z,1.00
2023-05-01T19:56:42.509Z,1.00
2023-05-01T19:59:12.622Z,1.00
2023-05-01T20:01:42.711Z,1.00
2023-05-01T20:04:14.423Z,1.00
2023-05-01T20:06:45.520Z,1.00
2023-05-01T20:09:16.886Z,1.00
2023-05-01T20:11:48.107Z,1.00
2023-05-01T20:14:18.963Z,1.00
2023-05-01T20:16:52.704Z,1.00
2023-05-01T20:19:23.404Z,1.00
2023-05-01T20:21:53.093Z,1.00
2023-05-01T20:24:26.504Z,1.00
2023-05-01T20:26:56.924Z,1.00
2023-05-01T20:29:26.735Z,1.00
2023-05-01T20:31:57.368Z,1.00
2023-05-01T20:34:27.147Z,1.00
2023-05-01T20:36:56.787Z,1.00
2023-05-01T20:39:29.260Z,1.00
2023-05-01T20:41:59.812Z,1.00
2023-05-01T20:44:30.324Z,1.00
2023-05-01T20:47:00.147Z,1.00
2023-05-01T20:49:30.862Z,1.00
2023-05-01T20:52:00.989Z,1.00
2023-05-01T20:54:33.252Z,1.00
2023-05-01T20:57:04.299Z,1.00
2023-05-01T20:59:34.913Z,1.00
2023-05-01T21:02:06.318Z,1.00
2023-05-01T21:04:38.643Z,1.00
2023-05-01T21:07:08.865Z,1.00
2023-05-01T21:09:45.022Z,1.00
2023-05-01T21:12:15.124Z,1.00
2023-05-01T21:14:44.551Z,1.00
2023-05-01T21:17:14.560Z,1.00
2023-05-01T21:19:46.038Z,1.00
2023-05-01T21:22:18.091Z,1.00
2023-05-01T21:24:54.562Z,1.00
2023-05-01T21:27:24.792Z,1.00
2023-05-01T21:29:58.600Z,1.00
2023-05-01T21:32:33.240Z,1.00
2023-05-01T21:35:04.869Z,1.00
2023-05-01T21:37:35.382Z,1.00
2023-05-01T21:40:08.364Z,1.00
2023-05-01T21:42:40.432Z,1.00
2023-05-01T21:45:13.330Z,1.00
2023-05-01T21:47:45.104Z,1.00
2023-05-01T21:50:16.420Z,1.00
2023-05-01T21:52:47.064Z,1.00
2023-05-01T21:55:21.176Z,1.00
2023-05-01T21:57:51.698Z,1.00
2023-05-01T22:00:22.944Z,1.00
2023-05-01T22:02:53.249Z,1.00
2023-05-01T22:05:24.112Z,1.00
2023-05-01T22:07:55.151Z,1.00
2023-05-01T22:10:26.382Z,1.00
2023-05-01T22:12:55.791Z,1.00
2023-05-01T22:15:26.136Z,1.00
2023-05-01T22:17:57.173Z,1.00
2023-05-01T22:20:26.968Z,1.00
2023-05-01T22:22:56.773Z,1.00
2023-05-01T22:25:29.063Z,1.00
2023-05-01T22:28:01.022Z,1.00
2023-05-01T22:30:31.247Z,1.00
2023-05-01T22:33:00.800Z,1.00
2023-05-01T22:35:30.682Z,1.00
2023-05-01T22:38:00.365Z,1.00
2023-05-01T22:40:31.232Z,1.40
2023-05-01T22:43:00.910Z,1.00
2023-05-01T22:45:30.621Z,1.00
2023-05-01T22:48:00.575Z,12.20
2023-05-01T22:50:31.033Z,23.70
2023-05-01T22:53:01.521Z,31.30
2023-05-01T22:55:33.362Z,33.30
2023-05-01T22:58:02.638Z,26.70
2023-05-01T23:00:32.463Z,44.20
2023-05-01T23:03:02.301Z,74.30
2023-05-01T23:05:32.097Z,57.80
2023-05-01T23:08:01.576Z,72.00
2023-05-01T23:10:33.770Z,69.90
2023-05-01T23:13:03.573Z,53.90
2023-05-01T23:15:33.132Z,56.20
2023-05-01T23:18:02.580Z,76.10
2023-05-01T23:20:32.185Z,96.00
2023-05-01T23:23:05.911Z,99.10
2023-05-01T23:25:37.337Z,85.80
2023-05-01T23:28:07.363Z,76.50
2023-05-01T23:30:37.065Z,90.50
2023-05-01T23:33:07.780Z,93.70
2023-05-01T23:35:36.985Z,97.40
2023-05-01T23:38:06.491Z,99.90
2023-05-01T23:40:38.483Z,99.90
2023-05-01T23:43:08.475Z,99.90
2023-05-01T23:45:38.105Z,99.90
2023-05-01T23:48:08.431Z,99.90
2023-05-01T23:50:38.726Z,99.90
2023-05-01T23:53:10.381Z,99.90
2023-05-01T23:55:43.616Z,99.90
2023-05-01T23:58:14.714Z,99.90
